createdAt,value
2023-03-27T00:00:17.069Z,60.03
2023-03-27T00:02:19.443Z,59.87
2023-03-27T00:04:23.169Z,60.04
2023-03-27T00:06:25.013Z,59.66
2023-03-27T00:08:30.089Z,59.16
2023-03-27T00:10:32.644Z,59.64
2023-03-27T00:12:34.506Z,59.35
2023-03-27T00:14:36.345Z,58.83
2023-03-27T00:16:40.060Z,58.79
2023-03-27T00:18:41.845Z,58.88
2023-03-27T00:20:43.908Z,58.57
2023-03-27T00:22:45.701Z,59.04
2023-03-27T00:24:49.896Z,58.79
2023-03-27T00:26:52.218Z,59.42
2023-03-27T00:28:54.119Z,59.05
2023-03-27T00:30:59.546Z,59.72
2023-03-27T00:33:03.030Z,59.41
2023-03-27T00:35:06.551Z,59.17
2023-03-27T00:37:08.843Z,59.11
2023-03-27T00:39:10.644Z,59.03
2023-03-27T00:41:13.168Z,58.78
2023-03-27T00:43:20.449Z,59.11
2023-03-27T00:45:24.587Z,58.98
2023-03-27T00:47:31.949Z,59.62
2023-03-27T00:49:37.479Z,59.63
2023-03-27T00:51:43.057Z,59.66
2023-03-27T00:53:48.380Z,59.01
2023-03-27T00:55:53.185Z,59.24
2023-03-27T00:58:03.479Z,59.64
2023-03-27T01:00:08.285Z,59.62
2023-03-27T01:02:12.791Z,59.88
2023-03-27T01:04:14.901Z,59.35
2023-03-27T01:06:19.308Z,59.29
2023-03-27T01:08:22.275Z,59.40
2023-03-27T01:10:33.539Z,60.10
2023-03-27T01:12:44.776Z,59.81
2023-03-27T01:14:59.257Z,59.76
2023-03-27T01:17:16.416Z,59.90
2023-03-27T01:19:43.903Z,59.60
2023-03-27T01:22:23.180Z,59.90
2023-03-27T01:24:56.372Z,59.57
2023-03-27T01:27:15.270Z,59.95
2023-03-27T01:29:26.366Z,59.79
2023-03-27T01:31:49.771Z,59.79
2023-03-27T01:34:39.731Z,60.54
2023-03-27T01:37:03.112Z,60.12
2023-03-27T01:39:57.146Z,59.02
2023-03-27T01:42:05.444Z,58.19
2023-03-27T01:44:15.897Z,58.13
2023-03-27T01:46:24.031Z,57.30
2023-03-27T01:48:33.303Z,57.04
2023-03-27T01:50:42.661Z,57.42
2023-03-27T01:52:52.943Z,57.22
2023-03-27T01:55:01.209Z,57.17
2023-03-27T01:57:09.647Z,56.53
2023-03-27T01:59:15.134Z,56.57
2023-03-27T02:01:21.276Z,56.27
2023-03-27T02:03:27.612Z,56.61
2023-03-27T02:05:34.444Z,56.50
2023-03-27T02:07:42.119Z,57.10
2023-03-27T02:09:49.047Z,57.84
2023-03-27T02:11:59.567Z,58.33
2023-03-27T02:14:05.749Z,57.72
2023-03-27T02:16:12.007Z,58.89
2023-03-27T02:18:19.309Z,59.10
2023-03-27T02:20:21.665Z,59.08
2023-03-27T02:22:38.024Z,59.20
2023-03-27T02:24:41.252Z,58.92
2023-03-27T02:26:43.587Z,59.08
2023-03-27T02:29:16.061Z,58.57
2023-03-27T02:31:35.059Z,59.03
2023-03-27T02:33:52.260Z,58.29
2023-03-27T02:36:03.951Z,58.71
2023-03-27T02:38:13.839Z,58.96
2023-03-27T02:40:23.846Z,58.59
2023-03-27T02:42:36.883Z,58.74
2023-03-27T02:44:47.895Z,58.25
2023-03-27T02:46:56.722Z,58.46
2023-03-27T02:49:04.357Z,58.84
2023-03-27T02:51:11.282Z,58.00
2023-03-27T02:53:18.623Z,58.38
2023-03-27T02:55:24.152Z,58.36
2023-03-27T02:57:30.106Z,58.40
2023-03-27T02:59:35.964Z,57.91
2023-03-27T03:01:40.306Z,58.83
2023-03-27T03:03:46.325Z,58.10
2023-03-27T03:05:47.919Z,58.49
2023-03-27T03:07:51.698Z,58.20
2023-03-27T03:09:54.374Z,58.56
2023-03-27T03:11:56.018Z,58.44
2023-03-27T03:13:58.030Z,58.61
2023-03-27T03:15:59.737Z,59.04
2023-03-27T03:18:03.164Z,58.19
2023-03-27T03:20:05.751Z,58.86
2023-03-27T03:22:08.219Z,58.97
2023-03-27T03:24:09.993Z,58.91
2023-03-27T03:26:12.136Z,58.74
2023-03-27T03:28:14.124Z,59.17
2023-03-27T03:30:16.556Z,59.12
2023-03-27T03:32:19.223Z,58.43
2023-03-27T03:34:22.373Z,59.39
2023-03-27T03:36:24.030Z,58.82
2023-03-27T03:38:25.677Z,59.42
2023-03-27T03:40:28.114Z,58.92
2023-03-27T03:42:29.688Z,59.02
2023-03-27T03:44:31.216Z,59.64
2023-03-27T03:46:33.021Z,59.18
2023-03-27T03:48:34.948Z,60.09
2023-03-27T03:50:38.013Z,59.86
2023-03-27T03:52:40.275Z,59.90
2023-03-27T03:54:42.903Z,59.84
2023-03-27T03:56:45.376Z,60.22
2023-03-27T03:58:47.282Z,60.33
2023-03-27T04:00:49.669Z,60.00
2023-03-27T04:02:51.999Z,60.27
2023-03-27T04:04:53.776Z,60.48
2023-03-27T04:06:56.827Z,60.48
2023-03-27T04:08:58.580Z,60.22
2023-03-27T04:11:00.283Z,60.35
2023-03-27T04:13:01.910Z,61.15
2023-03-27T04:15:04.130Z,60.83
2023-03-27T04:17:05.827Z,61.49
2023-03-27T04:19:07.707Z,61.13
2023-03-27T04:21:10.558Z,60.77
2023-03-27T04:23:13.900Z,61.45
2023-03-27T04:25:17.723Z,61.35
2023-03-27T04:27:19.754Z,61.08
2023-03-27T04:29:21.382Z,60.86
2023-03-27T04:31:23.010Z,61.00
2023-03-27T04:33:24.884Z,60.45
2023-03-27T04:35:29.155Z,60.83
2023-03-27T04:37:30.965Z,60.41
2023-03-27T04:39:34.128Z,60.04
2023-03-27T04:41:35.984Z,60.54
2023-03-27T04:43:37.672Z,60.42
2023-03-27T04:45:39.305Z,59.95
2023-03-27T04:47:41.454Z,60.16
2023-03-27T04:49:43.063Z,60.19
2023-03-27T04:51:45.174Z,59.98
2023-03-27T04:53:46.739Z,59.94
2023-03-27T04:55:50.253Z,60.03
2023-03-27T04:57:51.756Z,60.52
2023-03-27T04:59:53.723Z,60.07
2023-03-27T05:01:55.521Z,60.34
2023-03-27T05:03:57.467Z,60.60
2023-03-27T05:05:59.111Z,60.05
2023-03-27T05:08:00.830Z,60.61
2023-03-27T05:10:02.917Z,60.30
2023-03-27T05:12:06.691Z,60.50
2023-03-27T05:14:08.242Z,60.23
2023-03-27T05:16:10.256Z,60.61
2023-03-27T05:18:12.207Z,60.64
2023-03-27T05:20:16.376Z,60.08
2023-03-27T05:22:18.803Z,60.16
2023-03-27T05:24:20.832Z,60.37
2023-03-27T05:26:22.574Z,60.37
2023-03-27T05:28:25.803Z,59.79
2023-03-27T05:30:28.820Z,60.68
2023-03-27T05:32:30.503Z,60.50
2023-03-27T05:34:32.124Z,59.93
2023-03-27T05:36:33.982Z,60.05
2023-03-27T05:38:35.951Z,59.66
2023-03-27T05:40:38.032Z,59.83
2023-03-27T05:42:43.649Z,59.58
2023-03-27T05:44:46.752Z,59.83
2023-03-27T05:46:48.498Z,59.83
2023-03-27T05:48:50.463Z,59.68
2023-03-27T05:50:52.163Z,59.71
2023-03-27T05:52:57.781Z,59.89
2023-03-27T05:54:59.901Z,59.27
2023-03-27T05:57:01.659Z,58.83
2023-03-27T05:59:03.559Z,59.97
2023-03-27T06:01:07.259Z,59.14
2023-03-27T06:03:11.606Z,59.10
2023-03-27T06:05:13.519Z,57.66
2023-03-27T06:07:15.562Z,57.33
2023-03-27T06:09:17.600Z,56.81
2023-03-27T06:11:19.730Z,56.83
2023-03-27T06:13:22.030Z,56.45
2023-03-27T06:15:24.046Z,55.70
2023-03-27T06:17:29.557Z,56.17
2023-03-27T06:19:31.205Z,55.21
2023-03-27T06:21:33.164Z,55.43
2023-03-27T06:23:34.844Z,53.81
2023-03-27T06:25:38.633Z,54.74
2023-03-27T06:27:41.986Z,54.17
2023-03-27T06:29:43.552Z,53.23
2023-03-27T06:31:45.706Z,54.87
2023-03-27T06:33:48.933Z,54.40
2023-03-27T06:35:53.108Z,53.89
2023-03-27T06:37:56.067Z,52.70
2023-03-27T06:39:58.222Z,53.37
2023-03-27T06:42:00.309Z,51.42
2023-03-27T06:44:02.127Z,51.89
2023-03-27T06:46:06.332Z,52.77
2023-03-27T06:48:15.351Z,51.94
2023-03-27T06:50:27.083Z,52.67
2023-03-27T06:52:28.939Z,52.98
2023-03-27T06:54:30.603Z,52.52
2023-03-27T06:56:34.225Z,52.83
2023-03-27T06:58:35.872Z,53.85
2023-03-27T07:00:39.541Z,53.50
2023-03-27T07:02:41.615Z,52.81
2023-03-27T07:04:54.116Z,51.85
2023-03-27T07:07:05.099Z,50.42
2023-03-27T07:09:06.682Z,50.25
2023-03-27T07:11:12.134Z,50.83
2023-03-27T07:13:14.122Z,51.79
2023-03-27T07:15:17.223Z,50.37
2023-03-27T07:17:19.165Z,50.56
2023-03-27T07:19:20.740Z,49.91
2023-03-27T07:21:22.524Z,48.46
2023-03-27T07:23:25.557Z,48.78
2023-03-27T07:25:29.500Z,48.29
2023-03-27T07:27:31.158Z,48.39
2023-03-27T07:29:32.899Z,47.67
2023-03-27T07:31:54.625Z,49.33
2023-03-27T07:33:56.195Z,47.52
2023-03-27T07:35:58.655Z,47.67
2023-03-27T07:38:02.820Z,47.49
2023-03-27T07:40:08.992Z,47.27
2023-03-27T07:42:11.042Z,46.67
2023-03-27T07:44:12.737Z,45.83
2023-03-27T07:46:14.790Z,46.42
2023-03-27T07:48:16.538Z,46.32
2023-03-27T07:50:21.151Z,46.56
2023-03-27T07:52:22.974Z,46.15
2023-03-27T07:54:24.847Z,44.87
2023-03-27T07:56:28.556Z,45.16
2023-03-27T07:58:30.349Z,44.91
2023-03-27T08:00:32.259Z,45.85
2023-03-27T08:02:34.237Z,44.64
2023-03-27T08:04:36.502Z,44.50
2023-03-27T08:06:38.867Z,44.42
2023-03-27T08:08:41.838Z,45.04
2023-03-27T08:10:44.911Z,44.98
2023-03-27T08:12:49.396Z,45.82
2023-03-27T08:14:51.072Z,45.35
2023-03-27T08:16:54.356Z,45.48
2023-03-27T08:18:57.871Z,44.52
2023-03-27T08:21:01.780Z,45.55
2023-03-27T08:23:03.826Z,44.88
2023-03-27T08:25:09.259Z,43.26
2023-03-27T08:27:15.498Z,43.86
2023-03-27T08:29:18.830Z,43.98
2023-03-27T08:31:20.999Z,42.88
2023-03-27T08:33:22.860Z,43.56
2023-03-27T08:35:24.796Z,42.45
2023-03-27T08:37:26.451Z,43.25
2023-03-27T08:39:28.424Z,43.62
2023-03-27T08:41:35.701Z,43.62
2023-03-27T08:43:41.640Z,42.79
2023-03-27T08:45:50.513Z,43.82
2023-03-27T08:47:58.788Z,41.91
2023-03-27T08:50:04.562Z,40.84
2023-03-27T08:52:12.841Z,42.51
2023-03-27T08:54:19.189Z,41.41
2023-03-27T08:56:21.199Z,40.87
2023-03-27T08:58:23.572Z,38.84
2023-03-27T09:00:31.614Z,40.56
2023-03-27T09:02:45.570Z,43.67
2023-03-27T09:04:53.929Z,41.41
2023-03-27T09:07:02.812Z,42.99
2023-03-27T09:09:12.147Z,42.38
2023-03-27T09:11:29.233Z,42.97
2023-03-27T09:13:38.156Z,40.41
2023-03-27T09:15:48.715Z,39.59
2023-03-27T09:17:58.508Z,40.69
2023-03-27T09:20:07.162Z,40.92
2023-03-27T09:22:14.025Z,41.63
2023-03-27T09:24:29.007Z,42.50
2023-03-27T09:26:35.065Z,39.97
2023-03-27T09:28:47.955Z,41.13
2023-03-27T09:30:50.636Z,37.52
2023-03-27T09:32:58.903Z,39.06
2023-03-27T09:35:00.797Z,37.80
2023-03-27T09:37:03.328Z,38.02
2023-03-27T09:39:07.818Z,36.94
2023-03-27T09:41:14.632Z,38.22
2023-03-27T09:43:22.333Z,37.74
2023-03-27T09:45:29.678Z,37.85
2023-03-27T09:47:37.051Z,37.83
2023-03-27T09:49:45.265Z,38.01
2023-03-27T09:51:49.401Z,36.73
2023-03-27T09:53:59.255Z,37.87
2023-03-27T09:56:03.580Z,37.22
2023-03-27T09:58:14.682Z,39.20
2023-03-27T10:00:27.869Z,39.73
2023-03-27T10:02:31.125Z,38.44
2023-03-27T10:04:34.219Z,37.28
2023-03-27T10:06:42.780Z,38.81
2023-03-27T10:08:47.006Z,37.25
2023-03-27T10:10:56.133Z,37.58
2023-03-27T10:13:00.146Z,35.86
2023-03-27T10:15:03.739Z,37.50
2023-03-27T10:17:06.385Z,37.71
2023-03-27T10:19:21.566Z,41.15
2023-03-27T10:21:30.192Z,38.22
2023-03-27T10:23:43.539Z,38.69
2023-03-27T10:25:50.788Z,36.81
2023-03-27T10:27:53.065Z,35.81
2023-03-27T10:29:54.635Z,35.68
2023-03-27T10:31:58.363Z,34.96
2023-03-27T10:34:04.156Z,35.04
2023-03-27T10:36:08.597Z,35.17
2023-03-27T10:38:13.947Z,32.35
2023-03-27T10:40:20.121Z,34.69
2023-03-27T10:42:25.305Z,34.40
2023-03-27T10:44:27.589Z,32.38
2023-03-27T10:46:30.719Z,32.49
2023-03-27T10:48:46.178Z,35.36
2023-03-27T10:50:54.202Z,34.67
2023-03-27T10:53:06.412Z,32.47
2023-03-27T10:55:37.094Z,36.00
2023-03-27T10:57:40.975Z,31.44
2023-03-27T10:59:47.936Z,30.48
2023-03-27T11:01:54.829Z,30.71
2023-03-27T11:04:03.296Z,29.52
2023-03-27T11:06:12.153Z,29.79
2023-03-27T11:08:20.180Z,30.55
2023-03-27T11:10:26.765Z,30.76
2023-03-27T11:12:33.688Z,29.89
2023-03-27T11:14:46.161Z,30.74
2023-03-27T11:16:52.608Z,31.37
2023-03-27T11:18:58.843Z,31.34
2023-03-27T11:21:06.814Z,30.68
2023-03-27T11:23:14.832Z,31.58
2023-03-27T11:25:22.101Z,31.44
2023-03-27T11:27:32.976Z,31.86
2023-03-27T11:29:39.762Z,30.89
2023-03-27T11:31:43.877Z,30.98
2023-03-27T11:33:52.093Z,31.85
2023-03-27T11:36:00.527Z,30.60
2023-03-27T11:38:07.013Z,30.88
2023-03-27T11:40:15.451Z,30.65
2023-03-27T11:42:21.418Z,31.32
2023-03-27T11:44:26.627Z,30.70
2023-03-27T11:46:54.798Z,31.78
2023-03-27T11:49:10.289Z,30.23
2023-03-27T11:51:26.336Z,29.62
2023-03-27T11:53:43.167Z,29.53
2023-03-27T11:56:01.940Z,31.40
2023-03-27T11:58:19.858Z,31.85
2023-03-27T12:00:35.266Z,31.71
2023-03-27T12:03:12.465Z,32.52
2023-03-27T12:05:23.692Z,31.39
2023-03-27T12:07:47.646Z,30.16
2023-03-27T12:10:14.597Z,30.72
2023-03-27T12:12:50.678Z,31.46
2023-03-27T12:15:06.132Z,29.03
2023-03-27T12:17:45.162Z,28.79
2023-03-27T12:20:25.270Z,30.87
2023-03-27T12:22:39.608Z,29.47
2023-03-27T12:24:59.450Z,29.19
2023-03-27T12:27:27.467Z,30.08
2023-03-27T12:29:45.457Z,31.50
2023-03-27T12:32:04.173Z,30.83
2023-03-27T12:34:15.684Z,28.82
2023-03-27T12:36:22.151Z,31.41
2023-03-27T12:38:30.809Z,31.12
2023-03-27T12:40:40.286Z,30.18
2023-03-27T12:42:50.441Z,29.78
2023-03-27T12:45:12.460Z,33.56
2023-03-27T12:47:22.112Z,30.70
2023-03-27T12:49:48.383Z,32.86
2023-03-27T12:52:04.211Z,33.20
2023-03-27T12:54:16.318Z,32.97
2023-03-27T12:56:25.820Z,29.45
2023-03-27T12:58:32.489Z,31.14
2023-03-27T13:00:36.084Z,29.73
2023-03-27T13:02:59.782Z,33.48
2023-03-27T13:05:27.293Z,29.95
2023-03-27T13:07:38.471Z,28.01
2023-03-27T13:09:54.124Z,29.33
2023-03-27T13:12:17.871Z,27.76
2023-03-27T13:14:37.361Z,31.00
2023-03-27T13:17:01.009Z,31.36
2023-03-27T13:19:22.016Z,30.35
2023-03-27T13:21:37.299Z,31.53
2023-03-27T13:23:55.146Z,31.40
2023-03-27T13:26:10.886Z,31.11
2023-03-27T13:28:31.582Z,32.47
2023-03-27T13:30:47.125Z,33.02
2023-03-27T13:33:11.387Z,33.91
2023-03-27T13:35:33.209Z,33.70
2023-03-27T13:37:57.782Z,33.98
2023-03-27T13:40:01.062Z,34.17
2023-03-27T13:42:08.979Z,34.94
2023-03-27T13:44:16.092Z,35.42
2023-03-27T13:46:18.685Z,34.82
2023-03-27T13:48:44.511Z,32.78
2023-03-27T13:51:16.525Z,33.61
2023-03-27T13:53:35.439Z,33.78
2023-03-27T13:55:56.568Z,34.64
2023-03-27T13:58:14.594Z,34.82
2023-03-27T14:00:52.814Z,34.92
2023-03-27T14:03:38.132Z,34.14
2023-03-27T14:06:13.118Z,33.81
2023-03-27T14:08:28.561Z,33.64
2023-03-27T14:10:47.151Z,33.83
2023-03-27T14:13:02.152Z,34.56
2023-03-27T14:15:30.005Z,35.59
2023-03-27T14:18:01.729Z,35.83
2023-03-27T14:20:18.788Z,36.12
2023-03-27T14:22:25.086Z,37.06
2023-03-27T14:24:32.249Z,38.01
2023-03-27T14:26:36.359Z,38.45
2023-03-27T14:28:47.945Z,39.34
2023-03-27T14:30:49.567Z,37.78
2023-03-27T14:32:53.036Z,39.41
2023-03-27T14:34:54.913Z,39.53
2023-03-27T14:36:57.216Z,40.04
2023-03-27T14:39:01.138Z,40.68
2023-03-27T14:41:05.196Z,40.42
2023-03-27T14:43:13.752Z,40.66
2023-03-27T14:45:21.737Z,39.81
2023-03-27T14:47:24.233Z,40.60
2023-03-27T14:49:35.526Z,40.96
2023-03-27T14:51:39.746Z,39.96
2023-03-27T14:53:45.796Z,39.78
2023-03-27T14:55:50.337Z,40.04
2023-03-27T14:57:56.472Z,40.13
2023-03-27T15:00:00.711Z,40.46
2023-03-27T15:02:08.495Z,40.06
2023-03-27T15:04:14.481Z,40.38
2023-03-27T15:06:19.663Z,39.78
2023-03-27T15:08:24.425Z,39.31
2023-03-27T15:10:31.143Z,39.30
2023-03-27T15:12:33.870Z,39.53
2023-03-27T15:14:38.438Z,38.94
2023-03-27T15:16:46.284Z,39.20
2023-03-27T15:18:56.164Z,39.36
2023-03-27T15:21:02.848Z,38.81
2023-03-27T15:23:11.779Z,37.07
2023-03-27T15:25:16.011Z,36.40
2023-03-27T15:27:23.252Z,37.15
2023-03-27T15:29:35.305Z,37.51
2023-03-27T15:31:37.871Z,37.72
2023-03-27T15:33:50.066Z,37.89
2023-03-27T15:35:54.454Z,36.56
2023-03-27T15:37:56.663Z,36.25
2023-03-27T15:40:02.055Z,36.57
2023-03-27T15:42:09.601Z,37.15
2023-03-27T15:44:17.627Z,37.46
2023-03-27T15:46:20.487Z,37.36
2023-03-27T15:48:31.522Z,37.67
2023-03-27T15:50:35.314Z,37.82
2023-03-27T15:52:37.123Z,38.12
2023-03-27T15:54:54.092Z,39.21
2023-03-27T15:57:09.788Z,39.04
2023-03-27T15:59:15.025Z,39.57
2023-03-27T16:01:20.244Z,39.72
2023-03-27T16:03:24.649Z,39.28
2023-03-27T16:05:26.214Z,39.94
2023-03-27T16:07:42.292Z,40.08
2023-03-27T16:09:53.867Z,40.65
2023-03-27T16:11:57.593Z,40.63
2023-03-27T16:13:59.545Z,40.43
2023-03-27T16:16:04.201Z,41.40
2023-03-27T16:18:18.296Z,41.36
2023-03-27T16:20:38.894Z,41.91
2023-03-27T16:22:42.029Z,42.53
2023-03-27T16:24:43.625Z,43.28
2023-03-27T16:26:45.228Z,44.03
2023-03-27T16:28:47.088Z,44.32
2023-03-27T16:30:48.680Z,44.85
2023-03-27T16:32:50.339Z,43.98
2023-03-27T16:34:52.311Z,44.21
2023-03-27T16:36:54.317Z,43.97
2023-03-27T16:38:57.472Z,43.75
2023-03-27T16:41:00.534Z,44.25
2023-03-27T16:43:02.584Z,44.27
2023-03-27T16:45:05.102Z,44.51
2023-03-27T16:47:07.217Z,45.20
2023-03-27T16:49:11.832Z,45.17
2023-03-27T16:51:13.799Z,45.83
2023-03-27T16:53:15.690Z,45.43
2023-03-27T16:55:21.223Z,46.47
2023-03-27T16:57:23.079Z,46.60
2023-03-27T16:59:25.289Z,46.92
2023-03-27T17:01:27.189Z,47.97
2023-03-27T17:03:28.826Z,49.26
2023-03-27T17:05:30.427Z,52.09
2023-03-27T17:07:32.530Z,53.08
2023-03-27T17:09:34.592Z,53.96
2023-03-27T17:11:37.543Z,53.83
2023-03-27T17:13:42.495Z,54.01
2023-03-27T17:15:48.719Z,54.75
2023-03-27T17:17:50.596Z,54.74
2023-03-27T17:19:52.267Z,54.78
2023-03-27T17:21:53.859Z,55.36
2023-03-27T17:23:55.839Z,55.62
2023-03-27T17:25:59.877Z,55.81
2023-03-27T17:28:02.940Z,55.99
2023-03-27T17:30:05.643Z,56.19
2023-03-27T17:32:07.567Z,55.80
2023-03-27T17:34:09.761Z,55.90
2023-03-27T17:36:13.949Z,56.26
2023-03-27T17:38:15.780Z,56.43
2023-03-27T17:40:17.804Z,56.57
2023-03-27T17:42:19.507Z,56.25
2023-03-27T17:44:23.085Z,56.78
2023-03-27T17:46:25.113Z,56.47
2023-03-27T17:48:26.980Z,56.79
2023-03-27T17:50:28.552Z,57.05
2023-03-27T17:52:30.434Z,56.75
2023-03-27T17:54:32.260Z,57.10
2023-03-27T17:56:34.048Z,57.47
2023-03-27T17:58:35.635Z,58.02
2023-03-27T18:00:40.141Z,57.88
2023-03-27T18:02:43.300Z,58.07
2023-03-27T18:04:45.457Z,58.22
2023-03-27T18:06:47.058Z,58.70
2023-03-27T18:08:49.363Z,58.59
2023-03-27T18:10:51.312Z,58.55
2023-03-27T18:12:52.933Z,59.29
2023-03-27T18:14:54.576Z,59.11
2023-03-27T18:16:57.825Z,59.46
2023-03-27T18:18:59.419Z,60.02
2023-03-27T18:21:01.086Z,60.62
2023-03-27T18:23:03.129Z,60.99
2023-03-27T18:25:06.099Z,61.49
2023-03-27T18:27:07.915Z,62.14
2023-03-27T18:29:10.444Z,62.05
2023-03-27T18:31:12.842Z,61.70
2023-03-27T18:33:15.777Z,62.19
2023-03-27T18:35:19.416Z,62.19
2023-03-27T18:37:26.680Z,62.65
2023-03-27T18:39:28.541Z,62.53
2023-03-27T18:41:32.946Z,63.23
2023-03-27T18:43:35.058Z,62.71
2023-03-27T18:45:36.698Z,63.23
2023-03-27T18:47:38.819Z,63.17
2023-03-27T18:49:41.917Z,63.67
2023-03-27T18:51:43.782Z,63.67
2023-03-27T18:53:45.520Z,63.08
2023-03-27T18:55:48.733Z,62.93
2023-03-27T18:57:50.330Z,63.59
2023-03-27T18:59:53.318Z,62.57
2023-03-27T19:01:56.877Z,62.50
2023-03-27T19:03:59.443Z,62.54
2023-03-27T19:06:05.288Z,62.97
2023-03-27T19:08:06.883Z,62.80
2023-03-27T19:10:09.405Z,63.66
2023-03-27T19:12:11.518Z,63.55
2023-03-27T19:14:13.555Z,63.67
2023-03-27T19:16:17.804Z,64.57
2023-03-27T19:18:19.393Z,64.69
2023-03-27T19:20:22.597Z,64.82
2023-03-27T19:22:25.930Z,65.05
2023-03-27T19:24:27.766Z,65.09
2023-03-27T19:26:33.417Z,65.63
2023-03-27T19:28:35.230Z,64.39
2023-03-27T19:30:37.367Z,65.88
2023-03-27T19:32:39.556Z,65.83
2023-03-27T19:34:43.143Z,65.88
2023-03-27T19:36:45.061Z,65.05
2023-03-27T19:38:51.487Z,65.58
2023-03-27T19:40:53.847Z,65.42
2023-03-27T19:42:55.406Z,65.72
2023-03-27T19:44:57.238Z,65.72
2023-03-27T19:46:59.070Z,65.82
2023-03-27T19:49:02.846Z,65.41
2023-03-27T19:51:05.012Z,65.47
2023-03-27T19:53:09.016Z,65.94
2023-03-27T19:55:12.328Z,65.59
2023-03-27T19:57:14.619Z,64.94
2023-03-27T19:59:29.927Z,65.14
2023-03-27T20:01:32.361Z,64.82
2023-03-27T20:03:35.562Z,65.13
2023-03-27T20:05:38.232Z,65.93
2023-03-27T20:07:40.137Z,65.37
2023-03-27T20:09:41.754Z,65.32
2023-03-27T20:11:45.081Z,65.60
2023-03-27T20:13:56.216Z,65.82
2023-03-27T20:15:59.025Z,65.37
2023-03-27T20:18:00.759Z,65.80
2023-03-27T20:20:02.554Z,65.49
2023-03-27T20:22:04.345Z,66.05
2023-03-27T20:24:07.403Z,66.06
2023-03-27T20:26:09.129Z,65.55
2023-03-27T20:28:12.030Z,65.98
2023-03-27T20:30:13.994Z,66.16
2023-03-27T20:32:15.614Z,65.85
2023-03-27T20:34:17.956Z,66.16
2023-03-27T20:36:19.889Z,65.79
2023-03-27T20:38:21.520Z,65.62
2023-03-27T20:40:24.292Z,66.26
2023-03-27T20:42:26.184Z,65.88
2023-03-27T20:44:29.681Z,66.35
2023-03-27T20:46:31.611Z,66.10
2023-03-27T20:48:33.125Z,65.86
2023-03-27T20:50:35.379Z,66.35
2023-03-27T20:52:37.325Z,65.98
2023-03-27T20:54:39.099Z,66.47
2023-03-27T20:56:40.694Z,66.01
2023-03-27T20:58:43.274Z,66.90
2023-03-27T21:00:46.916Z,66.83
2023-03-27T21:02:48.644Z,66.16
2023-03-27T21:04:50.427Z,66.37
2023-03-27T21:06:53.327Z,66.96
2023-03-27T21:08:55.167Z,65.88
2023-03-27T21:10:57.539Z,66.61
2023-03-27T21:12:59.403Z,66.77
2023-03-27T21:15:01.269Z,66.18
2023-03-27T21:17:04.444Z,66.49
2023-03-27T21:19:19.812Z,64.76
2023-03-27T21:21:21.930Z,66.59
2023-03-27T21:23:23.903Z,66.06
2023-03-27T21:25:25.594Z,65.87
2023-03-27T21:27:27.575Z,65.50
2023-03-27T21:29:29.198Z,65.67
2023-03-27T21:31:30.905Z,65.91
2023-03-27T21:33:34.087Z,66.36
2023-03-27T21:35:41.427Z,65.45
2023-03-27T21:37:45.430Z,66.32
2023-03-27T21:39:47.020Z,66.05
2023-03-27T21:41:48.928Z,66.33
2023-03-27T21:43:50.757Z,65.68
2023-03-27T21:45:52.580Z,65.72
2023-03-27T21:47:54.224Z,66.26
2023-03-27T21:49:57.168Z,65.85
2023-03-27T21:51:58.763Z,65.78
2023-03-27T21:54:00.516Z,66.09
2023-03-27T21:56:02.291Z,66.40
2023-03-27T21:58:04.191Z,66.73
2023-03-27T22:00:07.073Z,66.15
2023-03-27T22:02:08.922Z,66.11
2023-03-27T22:04:10.605Z,66.62
2023-03-27T22:06:14.394Z,66.60
2023-03-27T22:08:16.741Z,66.29
2023-03-27T22:10:18.542Z,66.34
2023-03-27T22:12:20.308Z,66.31
2023-03-27T22:14:22.201Z,67.14
2023-03-27T22:16:23.913Z,66.27
2023-03-27T22:18:25.829Z,66.34
2023-03-27T22:20:27.981Z,66.57
2023-03-27T22:22:33.340Z,66.39
2023-03-27T22:24:35.142Z,67.08
2023-03-27T22:26:39.071Z,67.03
2023-03-27T22:28:40.629Z,67.10
2023-03-27T22:30:42.223Z,67.09
2023-03-27T22:32:43.916Z,66.49
2023-03-27T22:34:48.261Z,66.76
2023-03-27T22:36:50.373Z,66.86
2023-03-27T22:38:53.602Z,67.39
2023-03-27T22:40:55.442Z,66.92
2023-03-27T22:42:57.472Z,67.26
2023-03-27T22:44:59.563Z,67.06
2023-03-27T22:47:02.669Z,67.75
2023-03-27T22:49:04.676Z,67.59
2023-03-27T22:51:08.042Z,67.79
2023-03-27T22:53:09.561Z,68.65
2023-03-27T22:55:12.945Z,67.49
2023-03-27T22:57:14.542Z,68.04
2023-03-27T22:59:16.458Z,68.11
2023-03-27T23:01:18.339Z,68.01
2023-03-27T23:03:21.034Z,67.50
2023-03-27T23:05:22.664Z,67.45
2023-03-27T23:07:25.697Z,67.31
2023-03-27T23:09:27.370Z,67.40
2023-03-27T23:11:33.121Z,67.00
2023-03-27T23:13:35.794Z,67.20
2023-03-27T23:15:37.898Z,66.95
2023-03-27T23:17:39.697Z,67.05
2023-03-27T23:19:41.636Z,67.54
2023-03-27T23:21:43.435Z,67.08
2023-03-27T23:23:47.743Z,67.31
2023-03-27T23:25:49.514Z,67.17
2023-03-27T23:27:52.565Z,67.28
2023-03-27T23:29:54.087Z,67.37
2023-03-27T23:31:55.712Z,67.00
2023-03-27T23:33:57.628Z,67.76
2023-03-27T23:36:02.234Z,66.83
2023-03-27T23:38:04.204Z,67.25
2023-03-27T23:40:07.654Z,66.59
2023-03-27T23:42:09.296Z,66.26
2023-03-27T23:44:12.537Z,65.87
2023-03-27T23:46:16.629Z,65.66
2023-03-27T23:48:18.309Z,65.41
2023-03-27T23:50:19.978Z,64.61
2023-03-27T23:52:22.318Z,63.87
2023-03-27T23:54:24.302Z,64.25
2023-03-27T23:56:25.943Z,64.79
2023-03-27T23:58:29.641Z,64.85
